Main page
METAR-TAF:

METAR-TAF

Airports :

Ventspils International Airport

Ventspils, Latvia

latitude: 57-21-28N, longitude: 021-32-39E, elevation: 6 m

Current weather observation

The report was made 38 minutes ago, at 12:20 UTC
Wind 12 kt from the Southwest
Temperature 16°C
Humidity 77%
Pressure 1017 hPa
Visibility 10 km or more
Broken clouds at a height of 1800 ft

METAR: EVVA 211220Z AUTO 23012KT 9999 BKN018 16/12 Q1017

Time: 15:58 (12:58 UTC)


TAF: missing

Weather observations and forecasts of more than 4000 airports (METAR and TAF reports).

The available stations are represented by yellow and red dots on the map.

Hover mouse over dot to see the name of the station.

Then click to see weather observations and forecasts.

To change the map : click on the green buttons with a black cross to zoom in, on the green button with a dash to zoom out, or on the green arrows for adjacent maps.


METAR-TAF: